Time;durP1;ratioP1;P1;durP2;ratioP2;P2;SDS_P1;SDS_P2;PMS_P1;PMS_P2;Temp;Humidity;BMP_temperature;BMP_pressure;BME280_temperature;BME280_humidity;BME280_pressure;Samples;Min_cycle;Max_cycle;Signal;HPM_P1;HPM_P2
2023/06/25 04:31:35;;;;;;;7.47;4.65;;;21.30;62.20;;;;;;5367252;23;20047;-87
2023/06/25 04:34:01;;;;;;;9.00;4.72;;;21.30;62.30;;;;;;4932956;29;20047;-87
2023/06/25 04:36:26;;;;;;;8.07;4.43;;;21.30;62.50;;;;;;4933919;29;20482;-88
2023/06/25 04:38:52;;;;;;;9.23;4.90;;;21.30;62.50;;;;;;4949779;28;20764;-81
2023/06/25 04:41:18;;;;;;;8.10;4.80;;;21.30;62.70;;;;;;4939732;28;20035;-82
2023/06/25 04:43:43;;;;;;;8.35;4.32;;;21.30;62.50;;;;;;4937795;29;20031;-78
2023/06/25 04:46:09;;;;;;;10.20;5.45;;;21.30;62.20;;;;;;4937754;29;20031;-81
2023/06/25 04:48:35;;;;;;;7.72;4.82;;;21.30;62.30;;;;;;4954866;28;20039;-85
2023/06/25 04:51:00;;;;;;;7.30;4.50;;;21.30;62.50;;;;;;4944379;29;20382;-89
2023/06/25 04:53:27;;;;;;;8.40;4.80;;;21.40;62.20;;;;;;4926936;29;20126;-87
2023/06/25 04:55:58;;;;;;;7.75;5.13;;;21.40;62.30;;;;;;4951008;29;20086;-88
2023/06/25 04:58:23;;;;;;;7.68;5.05;;;21.30;62.40;;;;;;4937372;29;20035;-83
2023/06/25 05:00:49;;;;;;;8.32;5.10;;;21.20;62.70;;;;;;4953580;28;20055;-85
2023/06/25 05:03:15;;;;;;;7.57;5.00;;;21.30;62.80;;;;;;4949092;29;20094;-90
2023/06/25 05:05:40;;;;;;;8.23;4.55;;;21.30;62.60;;;;;;4937285;29;20390;-90
2023/06/25 05:08:08;;;;;;;8.07;4.75;;;21.30;62.60;;;;;;4932947;29;20038;-89
2023/06/25 05:10:34;;;;;;;8.45;4.72;;;21.30;62.70;;;;;;4946401;28;20024;-88
2023/06/25 05:13:00;;;;;;;8.38;4.70;;;21.30;62.80;;;;;;4940490;29;20034;-90
2023/06/25 05:15:25;;;;;;;7.43;4.47;;;21.30;62.80;;;;;;4952631;28;20015;-88
2023/06/25 05:17:51;;;;;;;7.30;4.75;;;21.10;63.10;;;;;;4950317;28;20078;-90
2023/06/25 05:20:17;;;;;;;7.63;4.95;;;21.20;63.20;;;;;;4949970;29;20055;-89
2023/06/25 05:22:42;;;;;;;8.65;5.20;;;21.20;63.20;;;;;;4947965;29;20063;-88
2023/06/25 05:25:08;;;;;;;9.00;5.40;;;21.10;63.40;;;;;;4951765;28;20034;-88
2023/06/25 05:27:34;;;;;;;8.90;5.35;;;21.10;63.40;;;;;;4946112;29;20530;-90
2023/06/25 05:30:00;;;;;;;7.97;4.95;;;21.20;63.30;;;;;;4947503;29;20186;-90
2023/06/25 05:32:25;;;;;;;7.75;4.68;;;21.20;63.40;;;;;;4947368;29;20070;-88
2023/06/25 05:34:51;;;;;;;7.75;4.18;;;21.20;63.50;;;;;;4934650;29;20409;-89
2023/06/25 05:37:21;;;;;;;8.32;4.75;;;21.20;63.50;;;;;;4942469;29;20027;-86
2023/06/25 05:39:46;;;;;;;8.30;5.03;;;21.20;63.40;;;;;;4937813;29;20123;-89
2023/06/25 05:42:12;;;;;;;9.68;5.40;;;21.20;63.70;;;;;;4956416;28;20058;-80
2023/06/25 05:44:39;;;;;;;7.38;4.65;;;21.20;63.60;;;;;;4940239;29;20127;-73
2023/06/25 05:47:04;;;;;;;8.30;4.88;;;21.30;64.50;;;;;;4957575;29;20055;-73
2023/06/25 05:49:30;;;;;;;6.20;4.07;;;21.30;63.90;;;;;;4956998;28;20035;-73
2023/06/25 05:51:56;;;;;;;7.57;4.45;;;21.40;65.20;;;;;;4940116;29;20402;-73
2023/06/25 05:54:21;;;;;;;8.85;5.03;;;21.60;63.20;;;;;;4957207;29;20038;-72
2023/06/25 05:56:47;;;;;;;7.68;5.00;;;21.70;63.60;;;;;;4954645;29;20062;-73
2023/06/25 05:59:12;;;;;;;6.47;4.80;;;21.70;63.00;;;;;;4957357;29;20126;-72
2023/06/25 06:01:38;;;;;;;7.45;4.65;;;21.70;63.20;;;;;;4957225;29;20072;-73
2023/06/25 06:04:05;;;;;;;7.47;4.55;;;21.80;63.60;;;;;;4954418;29;20472;-73
2023/06/25 06:06:31;;;;;;;7.68;4.65;;;21.90;63.40;;;;;;4957113;28;20029;-73
2023/06/25 06:08:56;;;;;;;9.32;5.35;;;22.00;63.00;;;;;;4956898;29;20027;-72
2023/06/25 06:11:22;;;;;;;8.63;5.15;;;22.10;62.30;;;;;;4939946;29;20015;-73
2023/06/25 06:13:48;;;;;;;8.07;5.18;;;22.20;62.50;;;;;;4939298;29;20099;-72
2023/06/25 06:16:14;;;;;;;9.88;4.80;;;22.00;62.70;;;;;;4957179;29;20106;-74
2023/06/25 06:18:40;;;;;;;7.72;5.18;;;22.00;62.60;;;;;;4957033;29;20074;-74
2023/06/25 06:21:05;;;;;;;7.70;4.57;;;22.10;63.10;;;;;;4957182;28;20098;-73
2023/06/25 06:23:31;;;;;;;7.05;4.80;;;22.10;62.70;;;;;;4955266;29;20027;-73
2023/06/25 06:25:56;;;;;;;8.68;5.00;;;22.10;62.70;;;;;;4956791;28;20027;-73
2023/06/25 06:28:22;;;;;;;6.97;4.60;;;22.30;62.70;;;;;;4959508;29;20411;-72
2023/06/25 06:30:47;;;;;;;7.40;4.78;;;22.40;62.50;;;;;;4960499;29;20510;-73
2023/06/25 06:33:14;;;;;;;8.30;4.90;;;22.40;62.00;;;;;;4957446;28;20035;-73
2023/06/25 06:35:40;;;;;;;6.70;4.50;;;22.60;62.40;;;;;;4960774;29;20038;-71
2023/06/25 06:38:05;;;;;;;6.97;4.70;;;22.70;62.00;;;;;;4958043;29;20035;-72
2023/06/25 06:40:31;;;;;;;8.73;5.00;;;22.80;61.30;;;;;;4959964;28;20035;-71
2023/06/25 06:42:56;;;;;;;8.32;5.10;;;22.80;62.00;;;;;;4957195;29;20035;-72
2023/06/25 06:45:22;;;;;;;8.90;4.20;;;22.90;61.60;;;;;;4960103;28;20362;-71
2023/06/25 06:47:48;;;;;;;11.93;5.53;;;22.90;61.30;;;;;;4960068;29;20027;-72
2023/06/25 06:50:13;;;;;;;9.15;5.22;;;23.10;61.50;;;;;;4960102;29;20031;-72
2023/06/25 06:52:43;;;;;;;8.88;4.80;;;23.20;61.50;;;;;;4959834;29;20152;-73
2023/06/25 06:55:08;;;;;;;8.10;4.35;;;23.30;61.10;;;;;;4957925;28;20093;-72
2023/06/25 06:57:36;;;;;;;7.88;4.68;;;23.30;60.60;;;;;;4942887;29;20126;-73
2023/06/25 07:00:05;;;;;;;8.25;5.00;;;23.50;60.10;;;;;;4943178;29;20076;-72
2023/06/25 07:02:30;;;;;;;6.90;4.50;;;23.60;59.70;;;;;;4965920;28;20035;-72
2023/06/25 07:04:56;;;;;;;7.70;4.95;;;23.70;59.60;;;;;;4968944;28;20042;-73
2023/06/25 07:07:22;;;;;;;6.47;4.22;;;23.80;59.70;;;;;;4959597;29;20481;-73
2023/06/25 07:09:52;;;;;;;7.50;4.57;;;23.90;59.00;;;;;;4956275;28;20061;-73
2023/06/25 07:12:18;;;;;;;8.23;5.15;;;24.00;58.90;;;;;;4959475;29;20082;-73
2023/06/25 07:14:43;;;;;;;6.88;4.47;;;24.10;58.40;;;;;;4959591;28;20102;-73
2023/06/25 07:17:09;;;;;;;8.65;5.28;;;24.20;57.80;;;;;;4958721;29;20054;-73
2023/06/25 07:19:35;;;;;;;6.47;4.22;;;24.30;57.60;;;;;;4959812;29;20465;-74
2023/06/25 07:22:00;;;;;;;7.93;4.72;;;24.30;58.10;;;;;;4957713;29;20027;-73
2023/06/25 07:24:26;;;;;;;8.45;4.80;;;24.40;57.80;;;;;;4960562;28;20833;-73
2023/06/25 07:26:51;;;;;;;6.75;4.05;;;24.60;57.30;;;;;;4970372;28;20031;-73
2023/06/25 07:29:17;;;;;;;8.45;5.40;;;24.60;57.20;;;;;;4957980;28;20039;-74
2023/06/25 07:32:24;;;;;;;7.82;4.40;;;24.70;56.90;;;;;;4955968;29;20058;-86
2023/06/25 07:34:49;;;;;;;7.75;4.60;;;24.90;56.30;;;;;;4929323;29;20039;-84
2023/06/25 07:37:15;;;;;;;11.45;4.15;;;25.10;55.30;;;;;;4949444;29;20497;-84
2023/06/25 07:39:41;;;;;;;7.05;4.47;;;25.30;54.90;;;;;;4947625;29;20028;-87
2023/06/25 07:42:06;;;;;;;7.28;4.25;;;25.60;55.00;;;;;;4939230;29;20114;-85
2023/06/25 07:44:32;;;;;;;6.72;4.32;;;26.00;54.30;;;;;;4958587;29;20019;-85
2023/06/25 07:46:58;;;;;;;7.78;4.30;;;26.60;52.20;;;;;;4956509;28;20027;-85
2023/06/25 07:49:45;;;;;;;5.82;4.32;;;27.80;50.30;;;;;;4958639;29;20086;-88
2023/06/25 07:52:29;;;;;;;5.93;4.35;;;29.90;45.80;;;;;;4942897;29;20115;-92
2023/06/25 07:55:05;;;;;;;7.65;4.85;;;32.80;39.50;;;;;;4957682;29;20078;-90
2023/06/25 07:57:31;;;;;;;7.30;4.70;;;35.40;35.60;;;;;;4959072;28;20401;-90
2023/06/25 07:59:57;;;;;;;5.55;4.47;;;37.30;33.00;;;;;;4953296;28;20095;-89
2023/06/25 08:02:23;;;;;;;7.85;4.80;;;38.80;30.70;;;;;;4941942;29;20031;-90
2023/06/25 08:04:49;;;;;;;7.55;4.82;;;39.30;28.50;;;;;;4941692;29;20118;-90
2023/06/25 08:07:15;;;;;;;5.18;4.68;;;40.30;28.70;;;;;;4942978;29;20105;-90
2023/06/25 08:09:41;;;;;;;6.13;4.40;;;40.60;27.70;;;;;;4958133;29;20036;-87
2023/06/25 08:12:07;;;;;;;4.82;4.40;;;41.10;26.70;;;;;;4947525;28;20050;-88
2023/06/25 08:14:33;;;;;;;4.85;4.35;;;41.30;26.60;;;;;;4939977;29;20043;-87
2023/06/25 08:16:59;;;;;;;5.40;4.43;;;41.50;26.10;;;;;;4954837;28;20027;-88
2023/06/25 08:19:25;;;;;;;6.05;4.20;;;41.50;26.10;;;;;;4950760;29;20035;-88
2023/06/25 08:21:50;;;;;;;5.18;4.07;;;41.30;25.90;;;;;;4936361;29;20035;-90
2023/06/25 08:24:16;;;;;;;5.47;4.20;;;41.10;25.80;;;;;;4958784;29;20027;-89
2023/06/25 08:26:41;;;;;;;5.50;4.22;;;41.40;26.80;;;;;;4958671;29;20058;-87
2023/06/25 08:29:12;;;;;;;5.22;4.72;;;41.60;25.50;;;;;;4956980;28;20454;-88
2023/06/25 08:31:38;;;;;;;5.45;4.30;;;41.70;25.20;;;;;;4939031;29;20043;-87
2023/06/25 08:34:04;;;;;;;4.95;4.20;;;41.60;25.20;;;;;;4957731;28;20035;-82
2023/06/25 08:36:29;;;;;;;4.90;4.05;;;41.30;24.60;;;;;;4956775;29;20030;-84
2023/06/25 08:38:55;;;;;;;6.25;4.38;;;41.60;25.80;;;;;;4957046;28;20035;-84
2023/06/25 08:41:21;;;;;;;4.95;4.45;;;41.60;25.40;;;;;;4956654;28;20035;-84
2023/06/25 08:43:46;;;;;;;8.18;4.95;;;41.80;24.60;;;;;;4952980;29;20085;-85
2023/06/25 08:46:14;;;;;;;5.15;4.50;;;42.10;25.50;;;;;;4958541;28;20039;-78
2023/06/25 08:48:39;;;;;;;5.22;4.78;;;42.30;24.90;;;;;;4957699;29;20409;-77
2023/06/25 08:51:24;;;;;;;5.57;4.25;;;42.40;24.20;;;;;;4956616;28;20087;-78
2023/06/25 08:53:58;;;;;;;6.15;4.35;;;42.00;24.10;;;;;;4955719;29;20020;-84
2023/06/25 08:56:24;;;;;;;4.53;4.10;;;42.30;23.80;;;;;;4957358;28;20041;-92
2023/06/25 08:58:50;;;;;;;5.15;4.65;;;42.40;24.40;;;;;;4957800;28;20482;-92
2023/06/25 09:01:16;;;;;;;4.70;4.20;;;42.70;24.60;;;;;;4938107;29;20028;-85
2023/06/25 09:03:41;;;;;;;6.10;4.43;;;42.50;23.60;;;;;;4958324;29;20035;-86
2023/06/25 09:06:17;;;;;;;5.38;4.32;;;42.50;23.00;;;;;;4941046;29;20466;-82
2023/06/25 09:08:43;;;;;;;6.10;4.63;;;42.40;23.80;;;;;;4927106;29;20035;-90
2023/06/25 09:11:09;;;;;;;8.23;5.20;;;42.20;23.40;;;;;;4938380;29;20031;-86
2023/06/25 09:13:37;;;;;;;6.38;4.50;;;41.80;23.40;;;;;;4937988;29;20032;-84
2023/06/25 09:16:04;;;;;;;6.22;4.70;;;41.90;23.90;;;;;;4951684;28;20042;-86
2023/06/25 09:18:31;;;;;;;5.47;4.75;;;42.20;23.20;;;;;;4939281;29;20041;-86
2023/06/25 09:21:04;;;;;;;6.05;4.32;;;42.20;23.00;;;;;;4940272;29;20090;-86
2023/06/25 09:23:29;;;;;;;6.05;4.40;;;42.80;23.30;;;;;;4957758;29;20082;-82
2023/06/25 09:25:56;;;;;;;5.05;4.38;;;42.90;22.20;;;;;;4957964;29;20035;-87
2023/06/25 09:28:22;;;;;;;7.18;4.93;;;42.90;23.00;;;;;;4957207;29;20043;-88
2023/06/25 09:30:47;;;;;;;6.38;4.35;;;43.20;23.00;;;;;;4957876;29;20051;-90
2023/06/25 09:33:15;;;;;;;4.70;4.30;;;43.20;22.60;;;;;;4956613;29;20023;-88
2023/06/25 09:35:40;;;;;;;5.80;4.95;;;42.80;21.20;;;;;;4957653;28;20163;-87
2023/06/25 09:38:06;;;;;;;5.10;4.60;;;42.60;21.80;;;;;;4956842;29;20071;-88
2023/06/25 09:40:32;;;;;;;5.05;4.32;;;42.70;22.10;;;;;;4940454;29;20112;-88
2023/06/25 09:42:59;;;;;;;4.70;4.25;;;42.80;22.20;;;;;;4938663;29;20035;-89
2023/06/25 09:45:27;;;;;;;7.70;7.13;;;42.70;22.00;;;;;;4940488;29;20072;-90
2023/06/25 09:47:54;;;;;;;7.00;4.72;;;42.60;22.20;;;;;;4940567;29;20027;-92
2023/06/25 09:50:27;;;;;;;5.22;4.72;;;42.40;22.30;;;;;;4957584;28;20028;-88
2023/06/25 09:52:59;;;;;;;5.07;4.63;;;42.50;22.30;;;;;;4940477;29;20095;-86
2023/06/25 09:55:27;;;;;;;5.10;4.53;;;42.90;22.20;;;;;;4938502;29;20035;-86
2023/06/25 09:57:54;;;;;;;6.00;5.47;;;42.70;22.00;;;;;;4938308;29;20042;-87
2023/06/25 10:00:21;;;;;;;5.47;4.97;;;42.40;22.90;;;;;;4956040;28;20028;-94
2023/06/25 10:02:47;;;;;;;4.97;4.45;;;42.70;22.40;;;;;;4942663;29;20028;-86
2023/06/25 10:05:14;;;;;;;4.90;4.50;;;42.30;23.20;;;;;;4956044;29;20054;-84
2023/06/25 10:07:41;;;;;;;5.30;4.90;;;42.30;22.90;;;;;;4960645;29;20027;-90
2023/06/25 10:10:18;;;;;;;5.07;4.40;;;42.10;22.60;;;;;;4957670;28;20023;-81
2023/06/25 10:12:43;;;;;;;6.43;4.65;;;42.20;22.50;;;;;;4958531;29;20267;-82
2023/06/25 10:15:09;;;;;;;7.07;5.13;;;42.10;23.10;;;;;;4943380;29;20126;-82
2023/06/25 10:17:35;;;;;;;7.22;4.63;;;42.10;23.10;;;;;;4962133;29;20035;-84
2023/06/25 10:20:02;;;;;;;4.97;4.47;;;41.60;23.00;;;;;;4968063;29;20108;-88
2023/06/25 10:22:28;;;;;;;6.20;4.80;;;41.40;23.60;;;;;;4969408;29;20056;-82
2023/06/25 10:24:55;;;;;;;4.88;4.38;;;40.90;23.80;;;;;;4967689;29;20035;-84
2023/06/25 10:27:24;;;;;;;5.95;4.78;;;40.50;23.50;;;;;;4943797;29;20501;-84
2023/06/25 10:29:50;;;;;;;7.97;7.18;;;40.40;24.50;;;;;;4941883;29;20028;-80
2023/06/25 10:32:20;;;;;;;6.25;5.18;;;40.40;25.10;;;;;;4957541;29;20509;-80
2023/06/25 10:34:55;;;;;;;5.28;4.78;;;40.20;24.90;;;;;;4957203;29;20521;-87
2023/06/25 10:37:21;;;;;;;8.95;7.88;;;39.90;25.70;;;;;;4954840;28;20027;-89
2023/06/25 10:39:47;;;;;;;7.57;6.60;;;39.50;25.60;;;;;;4956162;29;20629;-84
2023/06/25 10:42:13;;;;;;;6.18;4.40;;;38.90;26.70;;;;;;4958466;28;20038;-81
2023/06/25 10:44:40;;;;;;;7.25;6.20;;;38.50;27.00;;;;;;4951809;28;20042;-80
2023/06/25 10:47:08;;;;;;;6.72;5.10;;;38.00;28.30;;;;;;4958174;29;20029;-90
2023/06/25 10:49:35;;;;;;;5.18;3.85;;;37.60;27.30;;;;;;4955172;28;20039;-89
2023/06/25 10:52:02;;;;;;;5.82;3.80;;;37.10;27.70;;;;;;4956470;29;21202;-85
2023/06/25 10:54:28;;;;;;;6.72;5.32;;;36.60;28.90;;;;;;4958566;29;20023;-89
2023/06/25 10:57:08;;;;;;;7.00;5.03;;;36.10;29.90;;;;;;4966093;28;20115;-87
2023/06/25 10:59:34;;;;;;;6.05;4.13;;;35.90;30.00;;;;;;4951169;28;20058;-88
2023/06/25 11:02:13;;;;;;;6.35;4.00;;;35.80;30.20;;;;;;4957041;29;20652;-85
2023/06/25 11:04:39;;;;;;;5.47;3.47;;;35.70;30.70;;;;;;4943629;29;20035;-90
2023/06/25 11:07:05;;;;;;;8.15;5.85;;;35.60;30.90;;;;;;4959027;29;20039;-89
2023/06/25 11:09:31;;;;;;;10.20;6.35;;;35.50;31.10;;;;;;4959485;28;20027;-91
2023/06/25 11:11:56;;;;;;;10.07;7.47;;;35.40;31.60;;;;;;4928337;29;20063;-87
2023/06/25 11:14:23;;;;;;;5.75;4.07;;;35.30;31.30;;;;;;4952286;28;20508;-91
2023/06/25 11:16:49;;;;;;;9.60;5.82;;;35.30;31.10;;;;;;4944763;29;20367;-88
2023/06/25 11:19:15;;;;;;;6.50;5.57;;;35.20;32.00;;;;;;4944694;29;20046;-91
2023/06/25 11:21:40;;;;;;;8.02;4.72;;;35.10;32.30;;;;;;4944950;29;20501;-90
2023/06/25 11:24:09;;;;;;;6.20;4.03;;;35.00;32.80;;;;;;4945313;29;20756;-87
2023/06/25 11:26:41;;;;;;;6.80;4.50;;;34.90;33.00;;;;;;4944140;29;20120;-90
2023/06/25 11:29:07;;;;;;;8.68;4.55;;;34.80;32.80;;;;;;4961005;29;20035;-88
2023/06/25 11:31:52;;;;;;;6.72;4.25;;;34.70;32.90;;;;;;4942932;28;20102;-89
2023/06/25 11:34:21;;;;;;;7.85;4.15;;;34.70;32.40;;;;;;4930916;29;20031;-87
2023/06/25 11:36:47;;;;;;;5.90;4.30;;;34.50;33.40;;;;;;4958334;28;20434;-87
2023/06/25 11:39:13;;;;;;;5.85;4.00;;;34.60;32.00;;;;;;4957570;29;20087;-86
2023/06/25 11:41:39;;;;;;;6.85;4.57;;;34.50;33.80;;;;;;4943420;28;20031;-87
2023/06/25 11:44:19;;;;;;;6.60;4.13;;;34.60;32.30;;;;;;4941114;29;20031;-87
2023/06/25 11:46:49;;;;;;;5.68;4.15;;;34.40;32.30;;;;;;4954937;29;20039;-85
2023/06/25 11:49:15;;;;;;;6.07;4.20;;;34.40;33.30;;;;;;4945131;29;20027;-87
2023/06/25 11:51:40;;;;;;;7.65;4.30;;;34.30;32.70;;;;;;4951676;28;20082;-87
2023/06/25 11:54:06;;;;;;;5.72;3.47;;;34.30;32.20;;;;;;4948035;29;20030;-85
2023/06/25 11:56:32;;;;;;;7.30;3.63;;;34.20;32.80;;;;;;4955198;28;20035;-87
2023/06/25 11:58:57;;;;;;;6.22;3.47;;;34.20;33.70;;;;;;4955190;28;20031;-83
2023/06/25 12:01:23;;;;;;;5.25;3.42;;;34.20;33.50;;;;;;4948814;29;20062;-86
2023/06/25 12:03:48;;;;;;;6.22;3.70;;;34.00;32.10;;;;;;4951982;29;20027;-86
2023/06/25 12:06:14;;;;;;;5.55;3.85;;;33.90;32.00;;;;;;4949433;29;20030;-88
2023/06/25 12:08:40;;;;;;;6.53;3.78;;;34.00;32.90;;;;;;4945380;29;20518;-86
2023/06/25 12:11:05;;;;;;;5.70;3.83;;;34.10;32.50;;;;;;4948491;29;20027;-87
2023/06/25 12:13:31;;;;;;;5.45;3.58;;;34.10;33.90;;;;;;4948705;28;20688;-84
2023/06/25 12:15:57;;;;;;;6.70;3.50;;;34.10;32.70;;;;;;4932941;29;20034;-90
2023/06/25 12:18:22;;;;;;;5.57;3.30;;;34.20;33.70;;;;;;4946298;29;20032;-86
2023/06/25 12:20:48;;;;;;;5.45;3.60;;;34.20;31.80;;;;;;4932064;29;20028;-91
2023/06/25 12:23:14;;;;;;;6.22;3.45;;;34.00;33.20;;;;;;4954558;29;20039;-88
2023/06/25 12:25:39;;;;;;;5.53;3.42;;;34.10;31.50;;;;;;4937231;29;20039;-89
2023/06/25 12:28:05;;;;;;;8.57;4.00;;;34.00;31.80;;;;;;4951934;29;20058;-83
2023/06/25 12:30:31;;;;;;;5.85;3.70;;;33.90;31.80;;;;;;4957054;29;20075;-92
2023/06/25 12:32:58;;;;;;;7.53;3.78;;;34.00;32.80;;;;;;4957937;28;20035;-84
2023/06/25 12:35:24;;;;;;;5.93;4.05;;;34.00;32.80;;;;;;4917705;29;20486;-87
2023/06/25 12:37:49;;;;;;;5.57;3.85;;;34.10;32.50;;;;;;4952896;29;20102;-85
2023/06/25 12:40:15;;;;;;;5.80;3.70;;;34.00;32.80;;;;;;4958999;28;20046;-84
2023/06/25 12:42:41;;;;;;;4.63;3.30;;;33.90;32.70;;;;;;4954909;29;20029;-88
2023/06/25 12:45:08;;;;;;;5.38;3.63;;;33.90;32.30;;;;;;4935573;29;20047;-87
2023/06/25 12:47:40;;;;;;;6.35;3.80;;;34.00;31.60;;;;;;5072627;28;20437;-87
2023/06/25 12:50:06;;;;;;;5.97;3.85;;;34.00;31.70;;;;;;5061415;28;20037;-87
2023/06/25 12:52:32;;;;;;;6.50;4.38;;;33.90;31.30;;;;;;5084156;28;20047;-87
2023/06/25 12:54:58;;;;;;;6.43;4.13;;;33.80;30.80;;;;;;5092134;28;20082;-86
2023/06/25 12:57:24;;;;;;;5.97;3.80;;;33.80;30.70;;;;;;5092235;28;20029;-87
2023/06/25 12:59:49;;;;;;;5.32;3.50;;;33.80;32.50;;;;;;5064616;28;20033;-87
2023/06/25 13:02:15;;;;;;;5.25;3.58;;;33.80;32.60;;;;;;5069151;28;20028;-85
2023/06/25 13:04:41;;;;;;;6.53;3.45;;;33.80;32.80;;;;;;5067889;28;20041;-86
2023/06/25 13:07:06;;;;;;;5.78;3.90;;;33.80;33.00;;;;;;5057376;28;20103;-85
2023/06/25 13:09:32;;;;;;;5.40;3.88;;;33.90;32.60;;;;;;5082461;28;20032;-86
2023/06/25 13:11:58;;;;;;;6.10;3.30;;;33.80;34.50;;;;;;5073753;28;20028;-86
2023/06/25 13:14:24;;;;;;;5.53;3.50;;;33.80;34.70;;;;;;5053532;28;20029;-86
2023/06/25 13:16:49;;;;;;;5.80;3.67;;;33.90;34.30;;;;;;5054542;28;20029;-87
2023/06/25 13:19:15;;;;;;;6.35;3.38;;;33.90;34.10;;;;;;5072214;28;20029;-88
2023/06/25 13:21:41;;;;;;;5.40;3.83;;;33.90;33.60;;;;;;5072462;28;20028;-88
2023/06/25 13:24:07;;;;;;;6.07;3.97;;;33.90;33.40;;;;;;5071005;28;20032;-85
2023/06/25 13:26:33;;;;;;;5.45;3.40;;;33.80;34.20;;;;;;5050743;28;20063;-88
2023/06/25 13:28:58;;;;;;;7.18;4.38;;;33.80;34.40;;;;;;5071869;28;20025;-88
2023/06/25 13:31:24;;;;;;;6.30;3.50;;;33.80;34.20;;;;;;5070352;28;20124;-84
2023/06/25 13:33:50;;;;;;;5.85;3.85;;;33.90;34.70;;;;;;5078593;28;20090;-85
2023/06/25 13:36:16;;;;;;;5.50;3.70;;;33.80;34.50;;;;;;5092042;28;20024;-85
2023/06/25 13:38:42;;;;;;;6.05;3.67;;;33.80;34.60;;;;;;5090415;28;20039;-90
2023/06/25 13:41:07;;;;;;;4.70;3.30;;;33.70;34.70;;;;;;5083207;28;20028;-87
2023/06/25 13:43:34;;;;;;;5.47;3.65;;;33.60;35.10;;;;;;5066426;28;20040;-84
2023/06/25 13:46:01;;;;;;;5.85;3.88;;;33.40;35.30;;;;;;5070762;28;20508;-84
2023/06/25 13:48:28;;;;;;;5.60;3.38;;;33.40;35.00;;;;;;5070308;28;20051;-87
2023/06/25 13:50:54;;;;;;;5.65;3.42;;;33.30;35.50;;;;;;5056617;28;20680;-88
2023/06/25 13:53:20;;;;;;;5.55;3.40;;;33.40;35.40;;;;;;5063699;28;20028;-86
2023/06/25 13:55:46;;;;;;;7.22;4.22;;;33.50;34.80;;;;;;5067383;28;20487;-85
2023/06/25 13:58:11;;;;;;;5.45;3.60;;;33.60;35.50;;;;;;5057536;28;20029;-84
2023/06/25 14:00:37;;;;;;;6.47;3.72;;;33.70;35.80;;;;;;5056281;28;20029;-83
2023/06/25 14:03:05;;;;;;;7.07;3.78;;;33.50;35.20;;;;;;5060955;28;20084;-84
2023/06/25 14:05:35;;;;;;;6.65;3.90;;;33.50;36.50;;;;;;5057742;28;20031;-85
2023/06/25 14:08:04;;;;;;;4.85;3.30;;;33.60;35.80;;;;;;5053199;28;20029;-84
2023/06/25 14:10:31;;;;;;;5.57;4.10;;;33.60;35.50;;;;;;5052675;28;20030;-84
2023/06/25 14:13:01;;;;;;;5.68;3.67;;;33.70;34.50;;;;;;5055657;28;20114;-85
2023/06/25 14:15:27;;;;;;;6.32;3.40;;;33.80;34.20;;;;;;5056752;28;20021;-83
2023/06/25 14:17:53;;;;;;;7.20;3.88;;;33.80;35.50;;;;;;5054667;28;20029;-86
2023/06/25 14:20:19;;;;;;;5.60;3.60;;;33.80;37.40;;;;;;5054604;28;20021;-86
2023/06/25 14:22:45;;;;;;;6.22;3.63;;;33.70;35.70;;;;;;5055410;28;20112;-82
2023/06/25 14:25:10;;;;;;;6.00;3.90;;;33.70;35.70;;;;;;5055748;28;20077;-86
2023/06/25 14:27:36;;;;;;;5.60;3.92;;;33.70;36.30;;;;;;5057578;28;20064;-84
2023/06/25 14:30:02;;;;;;;6.00;4.18;;;33.70;36.30;;;;;;5052752;28;20043;-85
2023/06/25 14:32:27;;;;;;;6.65;3.85;;;33.70;37.50;;;;;;5054385;28;20102;-85
2023/06/25 14:34:53;;;;;;;8.73;4.10;;;33.70;36.70;;;;;;5056805;28;20028;-86
2023/06/25 14:37:19;;;;;;;6.35;4.00;;;33.70;35.80;;;;;;5056051;28;20482;-85
2023/06/25 14:39:44;;;;;;;6.15;3.90;;;33.70;36.20;;;;;;5054442;28;20033;-89
2023/06/25 14:42:10;;;;;;;6.93;3.42;;;33.80;35.20;;;;;;5057642;28;20111;-88
2023/06/25 14:44:35;;;;;;;5.10;3.58;;;33.70;34.80;;;;;;5046037;28;20029;-87
2023/06/25 14:47:01;;;;;;;5.82;4.03;;;33.80;34.10;;;;;;5050054;28;20049;-86
2023/06/25 14:49:27;;;;;;;6.78;4.30;;;33.90;35.60;;;;;;5052497;28;20029;-88
2023/06/25 14:51:52;;;;;;;8.02;5.18;;;33.80;38.50;;;;;;5037493;28;20487;-87
2023/06/25 14:54:18;;;;;;;8.18;4.53;;;33.40;39.50;;;;;;5037331;28;20030;-89
2023/06/25 14:56:44;;;;;;;6.50;4.45;;;33.20;40.10;;;;;;5035743;28;20041;-87
2023/06/25 14:59:10;;;;;;;7.13;4.57;;;32.90;40.70;;;;;;5035890;28;20032;-86
2023/06/25 15:01:35;;;;;;;6.38;4.30;;;32.70;41.00;;;;;;5036264;28;20037;-86
2023/06/25 15:04:01;;;;;;;6.93;4.20;;;32.50;41.40;;;;;;5043397;28;20033;-87
2023/06/25 15:06:27;;;;;;;10.30;4.50;;;32.30;41.80;;;;;;5055184;28;20036;-87
2023/06/25 15:08:52;;;;;;;5.65;4.28;;;32.60;41.80;;;;;;5054299;28;20479;-87
2023/06/25 15:11:18;;;;;;;6.18;3.80;;;32.80;41.50;;;;;;5052749;28;20025;-90
2023/06/25 15:13:44;;;;;;;6.35;4.25;;;32.90;41.50;;;;;;5055625;28;20104;-88
2023/06/25 15:16:09;;;;;;;6.50;4.15;;;32.70;41.20;;;;;;5054690;28;20056;-82
2023/06/25 15:18:35;;;;;;;6.13;4.03;;;32.60;41.50;;;;;;5054320;28;20553;-90
2023/06/25 15:21:01;;;;;;;9.48;4.13;;;32.40;41.70;;;;;;5045932;28;20060;-83
2023/06/25 15:23:27;;;;;;;7.25;4.38;;;32.50;42.50;;;;;;5054087;28;20040;-84
2023/06/25 15:25:52;;;;;;;7.65;4.05;;;32.40;42.00;;;;;;5055824;28;20112;-78
2023/06/25 15:28:18;;;;;;;6.78;4.07;;;32.30;41.90;;;;;;5050090;28;20082;-83
2023/06/25 15:30:47;;;;;;;5.30;3.75;;;32.30;41.40;;;;;;5055276;28;20435;-86
2023/06/25 15:33:12;;;;;;;6.72;3.40;;;32.20;41.20;;;;;;5051206;28;20033;-84
2023/06/25 15:35:38;;;;;;;7.45;4.03;;;32.20;41.30;;;;;;5048316;28;20028;-87
2023/06/25 15:38:11;;;;;;;8.80;3.58;;;31.90;41.40;;;;;;5055499;28;20031;-85
2023/06/25 15:40:36;;;;;;;7.53;3.83;;;31.30;42.50;;;;;;5049482;28;20061;-80
2023/06/25 15:43:02;;;;;;;7.45;3.70;;;30.80;43.40;;;;;;5054863;28;20021;-89
2023/06/25 15:45:27;;;;;;;6.75;3.42;;;30.50;45.10;;;;;;5055019;28;20103;-85
2023/06/25 15:47:53;;;;;;;7.95;3.55;;;30.30;45.70;;;;;;5054996;28;20033;-84
2023/06/25 15:50:19;;;;;;;8.23;3.58;;;30.10;46.10;;;;;;5055702;28;20017;-84
2023/06/25 15:52:45;;;;;;;6.10;3.47;;;30.00;47.00;;;;;;5050186;28;20075;-80
2023/06/25 15:55:10;;;;;;;7.25;3.70;;;30.00;46.40;;;;;;5040814;28;20095;-82
2023/06/25 15:57:36;;;;;;;6.22;3.22;;;29.80;46.70;;;;;;5052706;28;20502;-80
2023/06/25 16:00:04;;;;;;;8.02;3.40;;;29.80;47.00;;;;;;5052438;28;20482;-83
2023/06/25 16:02:29;;;;;;;6.00;3.30;;;30.00;47.60;;;;;;5049378;28;20032;-86
2023/06/25 16:04:55;;;;;;;7.57;3.25;;;30.10;47.10;;;;;;5051567;28;20021;-83
2023/06/25 16:07:21;;;;;;;6.70;3.05;;;30.30;46.40;;;;;;5055947;28;20029;-78
2023/06/25 16:09:46;;;;;;;5.38;3.50;;;30.30;45.80;;;;;;5055458;28;20025;-79
2023/06/25 16:12:13;;;;;;;5.68;2.92;;;30.30;45.40;;;;;;5054204;28;20029;-75
2023/06/25 16:14:39;;;;;;;7.70;3.30;;;30.30;45.60;;;;;;5052498;28;20035;-78
2023/06/25 16:17:05;;;;;;;4.72;2.95;;;30.40;45.30;;;;;;5054909;28;20108;-77
2023/06/25 16:19:30;;;;;;;5.35;2.92;;;30.30;45.00;;;;;;5049744;28;20059;-80
2023/06/25 16:21:56;;;;;;;6.53;2.83;;;30.20;45.50;;;;;;5055715;28;20043;-88
2023/06/25 16:24:22;;;;;;;5.25;2.60;;;30.30;45.60;;;;;;5053237;28;20032;-76
2023/06/25 16:26:47;;;;;;;5.35;2.63;;;30.30;45.60;;;;;;5049360;28;20036;-74
2023/06/25 16:29:13;;;;;;;4.90;2.80;;;30.30;45.80;;;;;;5051777;28;20452;-72
2023/06/25 16:31:39;;;;;;;5.82;2.78;;;30.30;45.30;;;;;;5051109;28;20040;-73
2023/06/25 16:34:04;;;;;;;4.82;2.50;;;30.10;46.00;;;;;;5055745;28;20028;-74
2023/06/25 16:36:31;;;;;;;5.63;2.70;;;29.90;46.20;;;;;;5054536;28;20518;-77
2023/06/25 16:38:56;;;;;;;5.22;2.50;;;29.90;46.30;;;;;;5051707;28;20035;-74
2023/06/25 16:41:22;;;;;;;6.28;2.92;;;29.80;47.70;;;;;;5053163;28;20029;-72
2023/06/25 16:43:48;;;;;;;7.78;2.95;;;29.60;47.30;;;;;;5054478;28;20040;-73
2023/06/25 16:46:13;;;;;;;5.97;2.78;;;29.40;47.40;;;;;;5051937;28;20052;-73
2023/06/25 16:48:39;;;;;;;5.97;2.80;;;29.30;47.20;;;;;;5049158;28;20040;-73
2023/06/25 16:51:05;;;;;;;8.60;3.08;;;29.30;46.80;;;;;;5045350;28;20406;-72
2023/06/25 16:53:30;;;;;;;6.10;2.75;;;29.20;47.60;;;;;;5054714;28;20025;-73
2023/06/25 16:55:56;;;;;;;4.88;2.30;;;29.30;47.40;;;;;;5054959;28;20056;-75
2023/06/25 16:58:22;;;;;;;5.70;2.70;;;29.30;47.20;;;;;;5051555;28;20060;-78
2023/06/25 17:00:47;;;;;;;6.90;3.15;;;29.20;47.90;;;;;;5055118;28;20522;-74
2023/06/25 17:03:13;;;;;;;6.88;2.40;;;29.10;47.60;;;;;;5053570;28;20037;-77
2023/06/25 17:05:39;;;;;;;5.38;2.53;;;29.10;48.20;;;;;;5054760;28;20180;-75
2023/06/25 17:08:04;;;;;;;6.32;2.80;;;29.10;48.20;;;;;;5039823;28;20162;-74
2023/06/25 17:10:30;;;;;;;4.55;2.70;;;29.20;47.50;;;;;;5049621;28;20064;-77
2023/06/25 17:12:57;;;;;;;5.63;2.58;;;29.10;47.70;;;;;;5050229;28;20028;-75